首页
METAR-TAF:

METAR-TAF

机场 :

纽伦堡机场

纽伦堡, 德国

纬度: 49-30N, 经度: 011-03E, 海拔: 318米

当前天气观测

该预报发布于30分钟前的19:50 UTC
风速4节,风向东转东南
温度 27°C
湿度 42%
气压 1016 hPa
能见度10公里或以上
1500米以下无云,无积雨云

METAR: EDDN 091950Z 12004KT CAVOK 27/13 Q1016 NOSIG

时间: 22:20 (20:20 UTC)

预报

该预报发布于3小时和20分钟前的17:00 UTC
预报有效从09日的 18点(UTC)到 10日的 18点(UTC)
风速4节,风向东转东南
能见度10公里或以上
1500米以下无云,无积雨云
几率 30% :
短暂存在
从 10日的 14点(UTC)到 10日的 18点(UTC)
风速20节,风向东北,有时为35节阵风
散云层高于6000英尺, 积雨云.
雷暴, 雨

TAF: EDDN 091700Z 0918/1018 11004KT CAVOK PROB30 TEMPO 1014/1018 04020G35KT TSRA SCT060CB

超过4000个机场的气象观测和天气预报(METAR&TAF报告)。

可查询的气象台以黄色和红色小点在地图上表示。

将鼠标移到小点上方,可查看气象台名称。

然后点击查看天气观测和预报。

如需切换地图:点击带黑十字的绿色按钮放大地图;点击带横线的绿色按钮缩小地图;或者点击绿色箭头查看邻近地区的地图。


METAR-TAF: